createdAt,value
2022-12-25T00:01:33.476Z,8.12
2022-12-25T00:04:01.116Z,8.11
2022-12-25T00:06:28.863Z,8.10
2022-12-25T00:08:56.393Z,8.11
2022-12-25T00:11:24.010Z,8.12
2022-12-25T00:13:51.563Z,8.14
2022-12-25T00:16:22.436Z,8.16
2022-12-25T00:18:51.557Z,8.17
2022-12-25T00:21:20.983Z,8.18
2022-12-25T00:23:53.262Z,8.19
2022-12-25T00:26:21.293Z,8.18
2022-12-25T00:28:53.001Z,8.16
2022-12-25T00:31:21.719Z,8.16
2022-12-25T00:33:50.724Z,8.16
2022-12-25T00:36:20.545Z,8.14
2022-12-25T00:38:48.400Z,8.13
2022-12-25T00:41:42.411Z,8.10
2022-12-25T00:44:13.748Z,8.06
2022-12-25T00:46:43.019Z,8.09
2022-12-25T00:49:11.678Z,8.08
2022-12-25T00:51:39.540Z,8.07
2022-12-25T00:54:07.624Z,8.04
2022-12-25T00:56:35.165Z,8.01
2022-12-25T00:59:02.843Z,8.00
2022-12-25T01:01:30.681Z,8.01
2022-12-25T01:03:58.874Z,8.02
2022-12-25T01:06:26.646Z,8.02
2022-12-25T01:09:12.796Z,8.01
2022-12-25T01:11:40.792Z,8.01
2022-12-25T01:14:08.683Z,7.99
2022-12-25T01:16:36.466Z,7.96
2022-12-25T01:19:04.494Z,7.96
2022-12-25T01:21:32.532Z,7.96
2022-12-25T01:24:00.167Z,7.99
2022-12-25T01:26:28.232Z,7.99
2022-12-25T01:28:55.734Z,8.00
2022-12-25T01:31:24.736Z,8.00
2022-12-25T01:33:53.189Z,8.01
2022-12-25T01:36:24.092Z,8.00
2022-12-25T01:38:53.240Z,7.96
2022-12-25T01:41:24.506Z,7.96
2022-12-25T01:44:06.064Z,7.92
2022-12-25T01:46:34.688Z,7.93
2022-12-25T01:49:06.691Z,7.92
2022-12-25T01:51:40.278Z,7.91
2022-12-25T01:54:15.355Z,7.91
2022-12-25T01:56:45.886Z,7.90
2022-12-25T01:59:17.013Z,7.90
2022-12-25T02:01:44.924Z,7.92
2022-12-25T02:04:38.852Z,7.93
2022-12-25T02:07:07.773Z,7.96
2022-12-25T02:09:36.922Z,7.96
2022-12-25T02:12:05.834Z,7.96
2022-12-25T02:14:35.602Z,7.95
2022-12-25T02:17:06.132Z,7.95
2022-12-25T02:19:52.642Z,7.95
2022-12-25T02:22:42.547Z,7.95
2022-12-25T02:25:28.352Z,7.96
2022-12-25T02:27:59.014Z,7.97
2022-12-25T02:30:31.077Z,7.95
2022-12-25T02:33:27.997Z,7.90
2022-12-25T02:35:57.081Z,7.85
2022-12-25T02:38:36.783Z,7.82
2022-12-25T02:41:15.725Z,7.83
2022-12-25T02:44:05.679Z,7.80
2022-12-25T02:46:52.373Z,7.81
2022-12-25T02:49:42.098Z,7.83
2022-12-25T02:52:31.761Z,7.88
2022-12-25T02:55:24.045Z,7.91
2022-12-25T02:58:14.017Z,7.96
2022-12-25T03:01:05.188Z,7.97
2022-12-25T03:03:56.197Z,8.00
2022-12-25T03:06:44.084Z,8.00
2022-12-25T03:09:40.655Z,8.00
2022-12-25T03:12:36.790Z,8.00
2022-12-25T03:15:26.619Z,8.02
2022-12-25T03:17:57.310Z,8.00
2022-12-25T03:20:44.538Z,7.99
2022-12-25T03:23:34.150Z,8.00
2022-12-25T03:26:20.543Z,7.99
2022-12-25T03:28:48.185Z,8.01
2022-12-25T03:31:25.271Z,8.01
2022-12-25T03:34:14.491Z,8.02
2022-12-25T03:37:03.314Z,8.01
2022-12-25T03:39:57.155Z,8.00
2022-12-25T03:42:52.247Z,8.04
2022-12-25T03:46:12.967Z,8.04
2022-12-25T03:49:01.788Z,8.03
2022-12-25T03:51:50.873Z,8.04
2022-12-25T03:54:43.125Z,8.03
2022-12-25T03:57:31.235Z,8.03
2022-12-25T04:00:17.403Z,8.02
2022-12-25T04:03:04.005Z,8.01
2022-12-25T04:05:50.109Z,8.01
2022-12-25T04:08:36.308Z,8.02
2022-12-25T04:11:22.518Z,8.08
2022-12-25T04:14:08.593Z,8.11
2022-12-25T04:16:55.435Z,8.15
2022-12-25T04:19:41.586Z,8.19
2022-12-25T04:22:27.739Z,8.27
2022-12-25T04:25:14.042Z,8.32
2022-12-25T04:28:00.110Z,8.34
2022-12-25T04:30:46.279Z,8.38
2022-12-25T04:33:32.355Z,8.41
2022-12-25T04:36:12.618Z,8.45
2022-12-25T04:38:41.402Z,8.47
2022-12-25T04:41:11.733Z,8.47
2022-12-25T04:43:39.432Z,8.47
2022-12-25T04:46:07.237Z,8.49
2022-12-25T04:48:36.155Z,8.50
2022-12-25T04:51:24.945Z,8.52
2022-12-25T04:53:53.697Z,8.56
2022-12-25T04:56:21.964Z,8.58
2022-12-25T04:58:49.951Z,8.56
2022-12-25T05:01:17.787Z,8.57
2022-12-25T05:03:45.603Z,8.57
2022-12-25T05:06:13.278Z,8.55
2022-12-25T05:08:41.346Z,8.52
2022-12-25T05:11:12.638Z,8.50
2022-12-25T05:13:40.736Z,8.48
2022-12-25T05:16:13.779Z,8.46
2022-12-25T05:18:41.425Z,8.48
2022-12-25T05:21:10.780Z,8.50
2022-12-25T05:23:39.018Z,8.52
2022-12-25T05:26:08.031Z,8.53
2022-12-25T05:28:35.921Z,8.58
2022-12-25T05:31:03.719Z,8.63
2022-12-25T05:33:31.600Z,8.68
2022-12-25T05:36:03.623Z,8.73
2022-12-25T05:38:31.308Z,8.79
2022-12-25T05:40:58.989Z,8.82
2022-12-25T05:43:27.276Z,8.85
2022-12-25T05:45:55.034Z,8.91
2022-12-25T05:48:22.718Z,8.94
2022-12-25T05:50:50.347Z,8.97
2022-12-25T05:53:18.034Z,9.02
2022-12-25T05:55:45.672Z,9.05
2022-12-25T05:58:14.034Z,9.05
2022-12-25T06:00:43.857Z,9.08
2022-12-25T06:03:11.543Z,9.11
2022-12-25T06:05:39.858Z,9.11
2022-12-25T06:08:07.479Z,9.11
2022-12-25T06:10:36.033Z,9.08
2022-12-25T06:13:04.111Z,9.05
2022-12-25T06:15:32.304Z,9.03
2022-12-25T06:18:00.638Z,8.99
2022-12-25T06:20:28.477Z,8.97
2022-12-25T06:22:56.150Z,8.94
2022-12-25T06:25:23.681Z,8.93
2022-12-25T06:27:51.247Z,8.93
2022-12-25T06:30:18.964Z,8.95
2022-12-25T06:32:46.545Z,8.96
2022-12-25T06:35:14.238Z,8.97
2022-12-25T06:37:41.810Z,8.93
2022-12-25T06:40:09.654Z,8.93
2022-12-25T06:42:37.269Z,8.95
2022-12-25T06:45:05.404Z,8.93
2022-12-25T06:47:33.077Z,8.94
2022-12-25T06:50:00.759Z,8.91
2022-12-25T06:52:28.543Z,8.89
2022-12-25T06:54:56.045Z,8.84
2022-12-25T06:57:23.935Z,8.84
2022-12-25T06:59:55.350Z,8.78
2022-12-25T07:02:24.376Z,8.75
2022-12-25T07:04:53.299Z,8.70
2022-12-25T07:07:23.046Z,8.68
2022-12-25T07:09:50.630Z,8.65
2022-12-25T07:12:20.917Z,8.63
2022-12-25T07:14:50.196Z,8.65
2022-12-25T07:17:19.879Z,8.69
2022-12-25T07:19:48.189Z,8.70
2022-12-25T07:22:16.234Z,8.72
2022-12-25T07:24:43.911Z,8.74
2022-12-25T07:27:11.737Z,8.75
2022-12-25T07:29:39.511Z,8.76
2022-12-25T07:32:07.331Z,8.77
2022-12-25T07:34:34.969Z,8.75
2022-12-25T07:37:02.731Z,8.76
2022-12-25T07:39:30.379Z,8.77
2022-12-25T07:41:57.919Z,8.76
2022-12-25T07:44:28.251Z,8.78
2022-12-25T07:46:55.816Z,8.79
2022-12-25T07:49:23.468Z,8.80
2022-12-25T07:51:51.044Z,8.78
2022-12-25T07:54:18.625Z,8.77
2022-12-25T07:56:46.600Z,8.76
2022-12-25T07:59:14.245Z,8.76
2022-12-25T08:01:42.042Z,8.77
2022-12-25T08:04:11.749Z,8.73
2022-12-25T08:06:39.436Z,8.72
2022-12-25T08:09:12.924Z,8.72
2022-12-25T08:11:45.720Z,8.74
2022-12-25T08:14:13.649Z,8.74
2022-12-25T08:16:42.366Z,8.77
2022-12-25T08:19:10.870Z,8.79
2022-12-25T08:21:38.933Z,8.80
2022-12-25T08:24:06.793Z,8.80
2022-12-25T08:26:34.483Z,8.78
2022-12-25T08:29:02.383Z,8.76
2022-12-25T08:31:30.376Z,8.71
2022-12-25T08:33:58.956Z,8.72
2022-12-25T08:36:27.330Z,8.76
2022-12-25T08:39:02.186Z,8.79
2022-12-25T08:41:36.608Z,8.82
2022-12-25T08:44:04.954Z,8.83
2022-12-25T08:46:32.596Z,8.83
2022-12-25T08:49:00.326Z,8.84
2022-12-25T08:51:27.847Z,8.86
2022-12-25T08:53:59.883Z,8.85
2022-12-25T08:56:28.635Z,8.85
2022-12-25T08:58:56.172Z,8.88
2022-12-25T09:01:23.902Z,8.89
2022-12-25T09:03:51.588Z,8.89
2022-12-25T09:06:19.235Z,8.87
2022-12-25T09:08:49.437Z,8.88
2022-12-25T09:11:18.915Z,8.90
2022-12-25T09:13:47.350Z,8.90
2022-12-25T09:16:20.594Z,8.91
2022-12-25T09:18:48.569Z,8.89
2022-12-25T09:21:17.096Z,8.91
2022-12-25T09:23:45.144Z,8.90
2022-12-25T09:26:15.334Z,8.88
2022-12-25T09:28:50.336Z,8.85
2022-12-25T09:31:21.642Z,8.80
2022-12-25T09:33:50.498Z,8.72
2022-12-25T09:36:18.355Z,8.63
2022-12-25T09:38:46.097Z,8.57
2022-12-25T09:41:17.044Z,8.52
2022-12-25T09:43:53.006Z,8.49
2022-12-25T09:46:24.688Z,8.44
2022-12-25T09:49:18.832Z,8.41
2022-12-25T09:51:52.027Z,8.42
2022-12-25T09:54:26.629Z,8.42
2022-12-25T09:56:54.259Z,8.42
2022-12-25T09:59:25.782Z,8.42
2022-12-25T10:02:30.832Z,8.42
2022-12-25T10:05:15.542Z,8.41
2022-12-25T10:08:13.507Z,8.42
2022-12-25T10:10:55.899Z,8.38
2022-12-25T10:13:45.331Z,8.35
2022-12-25T10:16:27.947Z,8.35
2022-12-25T10:18:55.462Z,8.37
2022-12-25T10:21:23.999Z,8.41
2022-12-25T10:24:11.239Z,8.47
2022-12-25T10:26:39.078Z,8.54
2022-12-25T10:29:14.330Z,8.56
2022-12-25T10:31:46.053Z,8.57
2022-12-25T10:34:15.169Z,8.57
2022-12-25T10:36:45.565Z,8.58
2022-12-25T10:39:18.511Z,8.59
2022-12-25T10:42:04.496Z,8.59
2022-12-25T10:44:33.331Z,8.62
2022-12-25T10:47:03.012Z,8.66
2022-12-25T10:49:34.514Z,8.71
2022-12-25T10:52:03.936Z,8.73
2022-12-25T10:54:35.730Z,8.72
2022-12-25T10:57:13.267Z,8.72
2022-12-25T10:59:46.552Z,8.76
2022-12-25T11:02:29.439Z,8.74
2022-12-25T11:05:07.540Z,8.76
2022-12-25T11:07:51.379Z,8.78
2022-12-25T11:10:24.745Z,8.86
2022-12-25T11:12:53.933Z,8.95
2022-12-25T11:15:43.551Z,8.98
2022-12-25T11:18:23.269Z,9.21
2022-12-25T11:20:59.603Z,9.80
2022-12-25T11:23:29.261Z,10.17
2022-12-25T11:25:59.958Z,10.66
2022-12-25T11:28:29.968Z,10.59
2022-12-25T11:31:06.372Z,10.35
2022-12-25T11:33:42.953Z,10.13
2022-12-25T11:36:20.514Z,10.38
2022-12-25T11:38:48.148Z,11.05
2022-12-25T11:41:20.833Z,10.97
2022-12-25T11:43:56.035Z,10.92
2022-12-25T11:46:42.975Z,10.94
2022-12-25T11:49:17.087Z,10.82
2022-12-25T11:51:47.450Z,10.88
2022-12-25T11:54:33.855Z,10.81
2022-12-25T11:57:04.597Z,10.65
2022-12-25T11:59:37.397Z,10.59
2022-12-25T12:02:36.849Z,10.57
2022-12-25T12:05:44.969Z,11.21
2022-12-25T12:08:14.005Z,12.09
2022-12-25T12:11:18.358Z,12.65
2022-12-25T12:14:53.369Z,13.49
2022-12-25T12:17:21.149Z,14.05
2022-12-25T12:19:48.741Z,14.23
2022-12-25T12:22:23.454Z,14.34
2022-12-25T12:25:18.207Z,14.86
2022-12-25T12:27:45.948Z,15.46
2022-12-25T12:30:29.485Z,15.98
2022-12-25T12:33:01.805Z,16.31
2022-12-25T12:35:36.202Z,16.58
2022-12-25T12:38:20.536Z,16.75
2022-12-25T12:40:58.055Z,16.77
2022-12-25T12:43:45.633Z,16.37
2022-12-25T12:46:50.700Z,15.82
2022-12-25T12:49:32.867Z,15.16
2022-12-25T12:52:20.765Z,14.40
2022-12-25T12:55:15.094Z,13.77
2022-12-25T12:57:42.970Z,13.37
2022-12-25T13:00:21.331Z,12.97
2022-12-25T13:03:01.100Z,12.58
2022-12-25T13:05:38.370Z,12.23
2022-12-25T13:08:25.290Z,11.96
2022-12-25T13:11:22.286Z,11.61
2022-12-25T13:13:52.742Z,11.39
2022-12-25T13:16:35.673Z,11.19
2022-12-25T13:19:12.822Z,11.05
2022-12-25T13:21:40.728Z,10.90
2022-12-25T13:24:20.836Z,10.74
2022-12-25T13:26:48.493Z,10.62
2022-12-25T13:29:38.238Z,10.46
2022-12-25T13:32:14.317Z,10.38
2022-12-25T13:34:43.164Z,10.29
2022-12-25T13:37:15.392Z,10.22
2022-12-25T13:40:01.372Z,10.16
2022-12-25T13:42:32.470Z,10.10
2022-12-25T13:45:08.145Z,10.05
2022-12-25T13:47:39.627Z,10.01
2022-12-25T13:50:15.207Z,9.94
2022-12-25T13:52:43.161Z,9.88
2022-12-25T13:55:17.166Z,9.83
2022-12-25T13:57:51.259Z,9.80
2022-12-25T14:00:21.873Z,9.75
2022-12-25T14:02:50.215Z,9.73
2022-12-25T14:05:42.850Z,9.71
2022-12-25T14:08:22.801Z,9.71
2022-12-25T14:10:52.696Z,9.71
2022-12-25T14:13:25.034Z,9.70
2022-12-25T14:15:53.899Z,9.68
2022-12-25T14:18:23.986Z,9.65
2022-12-25T14:21:05.776Z,9.60
2022-12-25T14:23:46.585Z,9.61
2022-12-25T14:26:22.779Z,9.55
2022-12-25T14:28:57.709Z,9.52
2022-12-25T14:31:28.632Z,9.49
2022-12-25T14:33:58.002Z,9.48
2022-12-25T14:36:26.618Z,9.48
2022-12-25T14:38:59.637Z,9.48
2022-12-25T14:41:37.906Z,9.49
2022-12-25T14:44:26.841Z,9.46
2022-12-25T14:47:15.762Z,9.40
2022-12-25T14:49:43.940Z,9.38
2022-12-25T14:52:19.227Z,9.35
2022-12-25T14:54:50.359Z,9.31
2022-12-25T14:57:27.936Z,9.27
2022-12-25T15:00:05.371Z,9.24
2022-12-25T15:02:44.991Z,9.19
2022-12-25T15:05:29.895Z,9.16
2022-12-25T15:08:24.616Z,9.11
2022-12-25T15:11:01.845Z,9.10
2022-12-25T15:13:31.093Z,9.07
2022-12-25T15:16:08.991Z,9.03
2022-12-25T15:18:41.985Z,9.02
2022-12-25T15:21:33.795Z,8.98
2022-12-25T15:24:01.841Z,8.98
2022-12-25T15:26:31.516Z,8.96
2022-12-25T15:28:59.455Z,8.94
2022-12-25T15:31:28.764Z,8.89
2022-12-25T15:33:58.405Z,8.84
2022-12-25T15:36:27.519Z,8.83
2022-12-25T15:38:55.743Z,8.80
2022-12-25T15:41:54.495Z,8.77
2022-12-25T15:44:22.641Z,8.76
2022-12-25T15:46:50.646Z,8.74
2022-12-25T15:49:18.372Z,8.73
2022-12-25T15:51:46.282Z,8.74
2022-12-25T15:54:14.032Z,8.77
2022-12-25T15:56:53.975Z,8.79
2022-12-25T15:59:23.285Z,8.78
2022-12-25T16:01:55.091Z,8.79
2022-12-25T16:04:24.317Z,8.75
2022-12-25T16:06:52.581Z,8.71
2022-12-25T16:09:21.271Z,8.65
2022-12-25T16:11:49.331Z,8.63
2022-12-25T16:14:17.019Z,8.61
2022-12-25T16:16:44.617Z,8.62
2022-12-25T16:19:12.165Z,8.63
2022-12-25T16:21:43.386Z,8.62
2022-12-25T16:24:11.157Z,8.62
2022-12-25T16:26:38.769Z,8.61
2022-12-25T16:29:07.937Z,8.54
2022-12-25T16:31:36.984Z,8.50
2022-12-25T16:34:06.505Z,8.47
2022-12-25T16:36:35.187Z,8.43
2022-12-25T16:39:04.262Z,8.38
2022-12-25T16:41:32.172Z,8.30
2022-12-25T16:44:10.666Z,8.25
2022-12-25T16:46:40.267Z,8.25
2022-12-25T16:49:08.795Z,8.23
2022-12-25T16:51:36.394Z,8.17
2022-12-25T16:54:04.182Z,8.15
2022-12-25T16:56:32.473Z,8.12
2022-12-25T16:59:01.139Z,8.12
2022-12-25T17:01:29.084Z,8.14
2022-12-25T17:04:01.650Z,8.15
2022-12-25T17:06:29.751Z,8.08
2022-12-25T17:09:00.003Z,8.04
2022-12-25T17:11:30.076Z,8.04
2022-12-25T17:13:59.949Z,8.04
2022-12-25T17:16:29.404Z,8.03
2022-12-25T17:19:08.063Z,7.98
2022-12-25T17:21:38.344Z,7.98
2022-12-25T17:24:06.806Z,7.94
2022-12-25T17:26:34.345Z,7.93
2022-12-25T17:29:02.529Z,7.94
2022-12-25T17:31:30.392Z,7.96
2022-12-25T17:34:00.577Z,7.96
2022-12-25T17:36:28.439Z,7.90
2022-12-25T17:38:56.257Z,7.84
2022-12-25T17:41:23.897Z,7.83
2022-12-25T17:43:51.528Z,7.84
2022-12-25T17:46:22.564Z,7.85
2022-12-25T17:48:51.988Z,7.81
2022-12-25T17:51:22.681Z,7.81
2022-12-25T17:53:55.096Z,7.79
2022-12-25T17:56:23.650Z,7.78
2022-12-25T17:58:53.184Z,7.77
2022-12-25T18:01:22.510Z,7.73
2022-12-25T18:03:51.022Z,7.71
2022-12-25T18:06:21.964Z,7.70
2022-12-25T18:08:50.022Z,7.67
2022-12-25T18:11:21.456Z,7.64
2022-12-25T18:13:52.266Z,7.60
2022-12-25T18:16:22.126Z,7.58
2022-12-25T18:18:52.534Z,7.55
2022-12-25T18:21:22.056Z,7.53
2022-12-25T18:23:50.423Z,7.48
2022-12-25T18:26:19.333Z,7.40
2022-12-25T18:28:48.694Z,7.33
2022-12-25T18:31:21.008Z,7.31
2022-12-25T18:33:49.690Z,7.31
2022-12-25T18:36:20.328Z,7.23
2022-12-25T18:38:49.735Z,7.13
2022-12-25T18:41:18.139Z,6.98
2022-12-25T18:43:54.284Z,6.90
2022-12-25T18:46:25.273Z,6.78
2022-12-25T18:48:55.251Z,6.67
2022-12-25T18:51:22.868Z,6.57
2022-12-25T18:53:51.669Z,6.43
2022-12-25T18:56:20.490Z,6.28
2022-12-25T18:58:48.368Z,6.15
2022-12-25T19:01:19.915Z,6.06
2022-12-25T19:03:49.407Z,5.97
2022-12-25T19:06:25.750Z,5.86
2022-12-25T19:08:55.527Z,5.77
2022-12-25T19:11:23.277Z,5.72
2022-12-25T19:13:51.028Z,5.68
2022-12-25T19:16:18.652Z,5.70
2022-12-25T19:18:46.399Z,5.69
2022-12-25T19:21:14.436Z,5.69
2022-12-25T19:23:44.101Z,5.69
2022-12-25T19:26:12.331Z,5.64
2022-12-25T19:28:40.483Z,5.58
2022-12-25T19:31:10.091Z,5.54
2022-12-25T19:33:41.879Z,5.56
2022-12-25T19:36:12.472Z,5.58
2022-12-25T19:38:40.798Z,5.54
2022-12-25T19:41:09.157Z,5.54
2022-12-25T19:43:39.330Z,5.57
2022-12-25T19:46:08.884Z,5.60
2022-12-25T19:48:37.624Z,5.59
2022-12-25T19:51:19.517Z,5.60
2022-12-25T19:53:47.769Z,5.63
2022-12-25T19:56:16.276Z,5.68
2022-12-25T19:58:44.757Z,5.71
2022-12-25T20:01:15.496Z,5.74
2022-12-25T20:03:46.948Z,5.77
2022-12-25T20:06:18.935Z,5.78
2022-12-25T20:08:47.374Z,5.76
2022-12-25T20:11:16.121Z,5.78
2022-12-25T20:13:43.943Z,5.79
2022-12-25T20:16:11.910Z,5.79
2022-12-25T20:18:40.294Z,5.82
2022-12-25T20:21:14.257Z,5.84
2022-12-25T20:23:47.189Z,5.85
2022-12-25T20:26:16.071Z,5.83
2022-12-25T20:28:44.112Z,5.81
2022-12-25T20:31:19.107Z,5.80
2022-12-25T20:33:46.983Z,5.81
2022-12-25T20:36:15.063Z,5.75
2022-12-25T20:38:42.637Z,5.69
2022-12-25T20:41:30.065Z,5.65
2022-12-25T20:43:58.447Z,5.62
2022-12-25T20:46:26.629Z,5.62
2022-12-25T20:48:54.566Z,5.62
2022-12-25T20:51:24.064Z,5.58
2022-12-25T20:53:52.174Z,5.60
2022-12-25T20:56:21.956Z,5.57
2022-12-25T20:58:58.189Z,5.55
2022-12-25T21:01:26.956Z,5.54
2022-12-25T21:03:54.949Z,5.51
2022-12-25T21:06:23.041Z,5.50
2022-12-25T21:08:50.692Z,5.49
2022-12-25T21:11:18.389Z,5.51
2022-12-25T21:13:46.965Z,5.51
2022-12-25T21:16:19.276Z,5.52
2022-12-25T21:18:48.208Z,5.51
2022-12-25T21:21:16.202Z,5.53
2022-12-25T21:23:45.724Z,5.50
2022-12-25T21:26:18.517Z,5.49
2022-12-25T21:28:51.143Z,5.48
2022-12-25T21:31:19.600Z,5.46
2022-12-25T21:33:53.734Z,5.43
2022-12-25T21:36:33.805Z,5.42
2022-12-25T21:39:05.873Z,5.41
2022-12-25T21:41:39.557Z,5.39
2022-12-25T21:44:08.436Z,5.35
2022-12-25T21:46:36.087Z,5.30
2022-12-25T21:49:04.196Z,5.23
2022-12-25T21:51:52.191Z,5.20
2022-12-25T21:54:21.966Z,5.18
2022-12-25T21:56:50.064Z,5.17
2022-12-25T21:59:22.644Z,5.13
2022-12-25T22:01:51.695Z,5.11
2022-12-25T22:04:21.766Z,5.07
2022-12-25T22:07:08.225Z,5.02
2022-12-25T22:09:36.078Z,4.89
2022-12-25T22:12:22.661Z,4.75
2022-12-25T22:14:54.156Z,4.64
2022-12-25T22:18:00.320Z,4.55
2022-12-25T22:20:30.829Z,4.46
2022-12-25T22:22:58.731Z,4.40
2022-12-25T22:25:26.431Z,4.34
2022-12-25T22:27:54.440Z,4.30
2022-12-25T22:30:28.360Z,4.24
2022-12-25T22:32:56.383Z,4.20
2022-12-25T22:35:24.026Z,4.15
2022-12-25T22:37:53.456Z,4.10
2022-12-25T22:40:21.855Z,4.06
2022-12-25T22:42:49.459Z,4.04
2022-12-25T22:45:17.313Z,3.98
2022-12-25T22:47:44.845Z,3.97
2022-12-25T22:50:15.131Z,3.94
2022-12-25T22:52:43.417Z,3.91
2022-12-25T22:55:18.633Z,3.89
2022-12-25T22:57:46.465Z,3.84
2022-12-25T23:00:14.331Z,3.80
2022-12-25T23:02:42.728Z,3.75
2022-12-25T23:05:10.462Z,3.72
2022-12-25T23:07:38.040Z,3.69
2022-12-25T23:10:06.790Z,3.67
2022-12-25T23:12:53.217Z,3.63
2022-12-25T23:15:20.852Z,3.59
2022-12-25T23:18:07.144Z,3.55
2022-12-25T23:20:55.687Z,3.47
2022-12-25T23:23:42.493Z,3.42
2022-12-25T23:26:11.233Z,3.37
2022-12-25T23:28:59.806Z,3.32
2022-12-25T23:31:31.729Z,3.27
2022-12-25T23:33:59.543Z,3.22
2022-12-25T23:36:28.420Z,3.19
2022-12-25T23:38:56.050Z,3.15
2022-12-25T23:41:23.554Z,3.13
2022-12-25T23:43:51.148Z,3.11
2022-12-25T23:46:19.285Z,3.09
2022-12-25T23:48:46.937Z,3.06
2022-12-25T23:51:14.475Z,3.02
2022-12-25T23:53:42.207Z,2.98
2022-12-25T23:56:10.644Z,2.94
2022-12-25T23:58:38.340Z,2.92
